createdAt,value
2019-02-26T00:02:26.097Z,5.10
2019-02-26T00:04:58.597Z,5.00
2019-02-26T00:07:30.420Z,5.00
2019-02-26T00:10:02.567Z,4.90
2019-02-26T00:12:35.492Z,4.80
2019-02-26T00:15:06.667Z,4.80
2019-02-26T00:17:40.447Z,4.70
2019-02-26T00:20:10.941Z,4.70
2019-02-26T00:22:41.634Z,4.60
2019-02-26T00:25:12.867Z,4.60
2019-02-26T00:27:44.125Z,4.60
2019-02-26T00:30:16.647Z,4.60
2019-02-26T00:32:48.360Z,4.60
2019-02-26T00:35:20.699Z,4.60
2019-02-26T00:37:51.673Z,4.50
2019-02-26T00:40:23.132Z,4.50
2019-02-26T00:42:56.999Z,4.40
2019-02-26T00:45:27.253Z,4.40
2019-02-26T00:47:58.951Z,4.40
2019-02-26T00:50:30.373Z,4.40
2019-02-26T00:53:02.251Z,4.40
2019-02-26T00:55:34.906Z,4.40
2019-02-26T00:58:08.374Z,4.30
2019-02-26T01:00:38.110Z,4.30
2019-02-26T01:03:10.922Z,4.20
2019-02-26T01:05:41.358Z,4.20
2019-02-26T01:08:13.419Z,4.10
2019-02-26T01:10:45.810Z,4.10
2019-02-26T01:13:16.299Z,4.10
2019-02-26T01:15:46.713Z,4.10
2019-02-26T01:18:18.104Z,4.00
2019-02-26T01:20:50.675Z,4.00
2019-02-26T01:23:24.248Z,3.90
2019-02-26T01:25:54.681Z,3.90
2019-02-26T01:28:26.904Z,3.80
2019-02-26T01:30:57.931Z,3.60
2019-02-26T01:33:30.288Z,3.60
2019-02-26T01:36:02.697Z,3.60
2019-02-26T01:38:33.356Z,3.50
2019-02-26T01:41:03.782Z,3.40
2019-02-26T01:43:34.417Z,3.40
2019-02-26T01:46:04.841Z,3.30
2019-02-26T01:48:36.734Z,3.30
2019-02-26T01:51:07.380Z,3.30
2019-02-26T01:53:37.864Z,3.40
2019-02-26T01:56:08.597Z,3.50
2019-02-26T01:58:39.024Z,3.60
2019-02-26T02:01:09.943Z,3.70
2019-02-26T02:03:41.108Z,3.70
2019-02-26T02:06:13.618Z,3.60
2019-02-26T02:08:45.808Z,3.60
2019-02-26T02:11:15.815Z,3.60
2019-02-26T02:13:46.296Z,3.50
2019-02-26T02:16:16.728Z,3.50
2019-02-26T02:18:48.843Z,3.40
2019-02-26T02:21:19.262Z,3.40
2019-02-26T02:23:50.846Z,3.40
2019-02-26T02:26:21.811Z,3.30
2019-02-26T02:28:52.240Z,3.30
2019-02-26T02:31:24.473Z,3.20
2019-02-26T02:33:55.754Z,3.20
2019-02-26T02:36:26.660Z,3.10
2019-02-26T02:38:57.340Z,3.00
2019-02-26T02:41:27.784Z,3.10
2019-02-26T02:43:58.285Z,3.00
2019-02-26T02:46:28.709Z,3.00
2019-02-26T02:48:59.134Z,3.00
2019-02-26T02:51:31.893Z,3.10
2019-02-26T02:54:03.930Z,3.10
2019-02-26T02:56:36.988Z,3.00
2019-02-26T02:59:08.762Z,3.00
2019-02-26T03:01:38.745Z,3.00
2019-02-26T03:04:09.179Z,2.90
2019-02-26T03:06:39.598Z,2.90
2019-02-26T03:09:17.719Z,2.90
2019-02-26T03:11:49.656Z,3.00
2019-02-26T03:14:20.816Z,3.00
2019-02-26T03:16:53.391Z,3.00
2019-02-26T03:19:23.307Z,3.00
2019-02-26T03:21:55.006Z,3.00
2019-02-26T03:24:28.174Z,3.00
2019-02-26T03:26:59.095Z,3.00
2019-02-26T03:29:29.526Z,3.00
2019-02-26T03:32:00.153Z,3.00
2019-02-26T03:34:30.785Z,3.00
2019-02-26T03:37:03.854Z,3.00
2019-02-26T03:39:33.582Z,2.90
2019-02-26T03:42:04.012Z,3.00
2019-02-26T03:44:35.464Z,2.90
2019-02-26T03:47:05.899Z,3.00
2019-02-26T03:49:36.317Z,2.90
2019-02-26T03:52:06.744Z,2.90
2019-02-26T03:54:37.854Z,2.80
2019-02-26T03:57:11.352Z,2.80
2019-02-26T03:59:41.618Z,2.80
2019-02-26T04:02:14.848Z,2.80
2019-02-26T04:04:45.855Z,2.70
2019-02-26T04:07:16.369Z,2.70
2019-02-26T04:09:49.799Z,2.70
2019-02-26T04:12:20.909Z,2.60
2019-02-26T04:14:51.336Z,2.60
2019-02-26T04:17:25.422Z,2.60
2019-02-26T04:19:53.829Z,2.60
2019-02-26T04:22:32.002Z,2.60
2019-02-26T04:25:09.142Z,2.60
2019-02-26T04:28:17.437Z,2.50
2019-02-26T04:31:17.872Z,2.50
2019-02-26T04:34:11.716Z,2.50
2019-02-26T04:37:30.148Z,2.50
2019-02-26T04:40:20.874Z,2.40
2019-02-26T04:43:54.203Z,2.40
2019-02-26T04:46:53.796Z,2.40
2019-02-26T04:49:27.201Z,2.40
2019-02-26T04:51:55.792Z,2.50
2019-02-26T04:54:30.360Z,2.60
2019-02-26T04:56:59.517Z,2.60
2019-02-26T04:59:32.261Z,2.60
2019-02-26T05:02:02.112Z,2.60
2019-02-26T05:04:36.529Z,2.60
2019-02-26T05:07:08.037Z,2.60
2019-02-26T05:09:38.174Z,2.50
2019-02-26T05:12:08.675Z,2.50
2019-02-26T05:14:39.158Z,2.40
2019-02-26T05:17:09.586Z,2.40
2019-02-26T05:19:42.421Z,2.40
2019-02-26T05:22:12.283Z,2.30
2019-02-26T05:24:44.804Z,2.30
2019-02-26T05:27:19.797Z,2.30
2019-02-26T05:29:51.581Z,2.30
2019-02-26T05:32:21.882Z,2.30
2019-02-26T05:34:53.125Z,2.20
2019-02-26T05:37:23.549Z,2.20
2019-02-26T05:39:54.616Z,2.20
2019-02-26T05:42:25.432Z,2.20
2019-02-26T05:44:57.393Z,2.10
2019-02-26T05:47:27.919Z,2.20
2019-02-26T05:49:59.543Z,2.20
2019-02-26T05:52:33.202Z,2.20
2019-02-26T05:55:03.504Z,2.30
2019-02-26T05:57:33.928Z,2.30
2019-02-26T06:00:04.460Z,2.30
2019-02-26T06:02:37.391Z,2.30
2019-02-26T06:05:07.156Z,2.20
2019-02-26T06:07:38.840Z,2.20
2019-02-26T06:10:09.774Z,2.20
2019-02-26T06:12:41.477Z,2.20
2019-02-26T06:15:12.447Z,2.10
2019-02-26T06:17:43.740Z,2.00
2019-02-26T06:20:20.335Z,2.00
2019-02-26T06:22:50.794Z,2.00
2019-02-26T06:25:24.375Z,1.90
2019-02-26T06:27:53.285Z,1.90
2019-02-26T06:30:23.715Z,1.90
2019-02-26T06:32:59.610Z,1.80
2019-02-26T06:35:27.336Z,1.80
2019-02-26T06:37:59.454Z,1.80
2019-02-26T06:40:32.423Z,1.80
2019-02-26T06:43:02.196Z,1.80
2019-02-26T06:45:32.627Z,1.80
2019-02-26T06:48:04.277Z,1.80
2019-02-26T06:50:36.802Z,1.90
2019-02-26T06:53:09.137Z,1.90
2019-02-26T06:55:39.248Z,1.90
2019-02-26T06:58:23.499Z,1.80
2019-02-26T07:00:55.487Z,1.70
2019-02-26T07:03:26.421Z,1.70
2019-02-26T07:05:56.837Z,1.60
2019-02-26T07:08:30.427Z,1.60
2019-02-26T07:10:59.395Z,1.60
2019-02-26T07:13:29.890Z,1.70
2019-02-26T07:16:02.647Z,1.80
2019-02-26T07:18:32.447Z,1.90
2019-02-26T07:21:03.076Z,2.00
2019-02-26T07:23:35.060Z,2.10
2019-02-26T07:26:05.878Z,2.20
2019-02-26T07:28:36.301Z,2.40
2019-02-26T07:31:08.122Z,3.00
2019-02-26T07:34:01.357Z,3.80
2019-02-26T07:36:32.261Z,4.60
2019-02-26T07:39:02.690Z,5.60
2019-02-26T07:41:33.117Z,6.40
2019-02-26T07:44:03.716Z,7.30
2019-02-26T07:46:35.665Z,8.10
2019-02-26T07:49:07.431Z,8.90
2019-02-26T07:51:38.657Z,9.70
2019-02-26T07:54:10.174Z,10.50
2019-02-26T07:56:40.703Z,11.30
2019-02-26T07:59:12.582Z,12.00
2019-02-26T08:01:45.259Z,12.70
2019-02-26T08:04:16.550Z,13.50
2019-02-26T08:06:47.577Z,14.20
2019-02-26T08:09:19.422Z,15.00
2019-02-26T08:11:53.110Z,15.60
2019-02-26T08:14:25.497Z,16.30
2019-02-26T08:16:56.741Z,16.90
2019-02-26T08:19:29.760Z,17.40
2019-02-26T08:22:00.029Z,17.80
2019-02-26T08:24:30.564Z,17.70
2019-02-26T08:27:03.279Z,17.10
2019-02-26T08:29:34.318Z,17.20
2019-02-26T08:32:05.561Z,17.00
2019-02-26T08:34:39.125Z,16.70
2019-02-26T08:37:08.451Z,16.80
2019-02-26T08:39:39.253Z,16.60
2019-02-26T08:42:11.592Z,16.40
2019-02-26T08:44:42.162Z,16.60
2019-02-26T08:47:13.922Z,17.30
2019-02-26T08:49:47.062Z,18.00
2019-02-26T08:52:17.506Z,18.50
2019-02-26T08:54:48.891Z,19.40
2019-02-26T08:57:20.547Z,19.90
2019-02-26T08:59:52.279Z,20.90
2019-02-26T09:02:24.684Z,22.00
2019-02-26T09:04:55.100Z,23.00
2019-02-26T09:07:26.660Z,22.30
2019-02-26T09:09:58.207Z,21.50
2019-02-26T09:12:28.734Z,20.50
2019-02-26T09:14:59.308Z,19.70
2019-02-26T09:17:32.372Z,18.90
2019-02-26T09:20:09.156Z,18.70
2019-02-26T09:22:34.204Z,18.20
2019-02-26T09:25:05.023Z,17.90
2019-02-26T09:27:42.541Z,18.40
2019-02-26T09:30:11.751Z,19.10
2019-02-26T09:32:44.732Z,20.40
2019-02-26T09:35:18.450Z,22.60
2019-02-26T09:37:49.977Z,24.30
2019-02-26T09:40:23.007Z,26.00
2019-02-26T09:42:54.583Z,27.30
2019-02-26T09:45:28.672Z,28.50
2019-02-26T09:47:57.959Z,28.50
2019-02-26T09:50:28.392Z,29.30
2019-02-26T09:52:59.368Z,30.00
2019-02-26T09:55:29.958Z,30.40
2019-02-26T09:58:02.484Z,30.00
2019-02-26T10:00:32.653Z,30.40
2019-02-26T10:03:05.275Z,30.20
2019-02-26T10:05:35.363Z,29.50
2019-02-26T10:08:05.976Z,29.20
2019-02-26T10:10:39.165Z,28.60
2019-02-26T10:13:08.882Z,28.60
2019-02-26T10:15:39.866Z,28.90
2019-02-26T10:18:11.582Z,29.20
2019-02-26T10:20:45.010Z,29.50
2019-02-26T10:23:14.751Z,31.00
2019-02-26T10:25:45.326Z,30.10
2019-02-26T10:28:17.232Z,30.60
2019-02-26T10:30:47.914Z,32.10
2019-02-26T10:33:20.950Z,31.80
2019-02-26T10:35:50.408Z,31.60
2019-02-26T10:38:21.023Z,32.80
2019-02-26T10:40:54.749Z,34.40
2019-02-26T10:43:24.673Z,34.30
2019-02-26T10:45:55.296Z,33.90
2019-02-26T10:48:27.979Z,34.90
2019-02-26T10:50:57.931Z,35.00
2019-02-26T10:53:29.844Z,34.10
2019-02-26T10:56:01.504Z,34.10
2019-02-26T10:58:31.934Z,33.50
2019-02-26T11:01:05.162Z,34.00
2019-02-26T11:03:37.884Z,34.50
2019-02-26T11:06:09.504Z,34.30
2019-02-26T11:08:39.030Z,34.00
2019-02-26T11:11:10.572Z,33.90
2019-02-26T11:13:43.520Z,35.00
2019-02-26T11:16:17.040Z,35.00
2019-02-26T11:18:47.689Z,34.10
2019-02-26T11:21:18.287Z,33.60
2019-02-26T11:23:48.924Z,33.40
2019-02-26T11:26:19.502Z,32.10
2019-02-26T11:28:49.956Z,31.70
2019-02-26T11:31:25.005Z,32.00
2019-02-26T11:33:56.375Z,33.20
2019-02-26T11:36:25.200Z,33.30
2019-02-26T11:38:56.206Z,33.40
2019-02-26T11:41:28.759Z,33.10
2019-02-26T11:43:59.867Z,33.40
2019-02-26T11:46:33.641Z,33.80
2019-02-26T11:49:02.998Z,33.80
2019-02-26T11:51:37.079Z,33.40
2019-02-26T11:54:08.294Z,33.20
2019-02-26T11:56:42.602Z,33.50
2019-02-26T11:59:21.985Z,33.50
2019-02-26T12:01:54.194Z,35.10
2019-02-26T12:04:25.968Z,36.10
2019-02-26T12:06:58.390Z,35.60
2019-02-26T12:09:30.031Z,34.50
2019-02-26T12:12:03.493Z,34.40
2019-02-26T12:14:34.683Z,34.00
2019-02-26T12:17:07.258Z,34.10
2019-02-26T12:19:37.711Z,33.90
2019-02-26T12:22:08.136Z,33.90
2019-02-26T12:24:38.571Z,33.20
2019-02-26T12:27:09.777Z,33.30
2019-02-26T12:29:54.377Z,33.20
2019-02-26T12:32:24.920Z,34.10
2019-02-26T12:34:59.327Z,35.90
2019-02-26T12:37:29.863Z,36.80
2019-02-26T12:40:00.408Z,37.50
2019-02-26T12:42:30.997Z,38.80
2019-02-26T12:45:04.186Z,39.60
2019-02-26T12:47:33.771Z,40.90
2019-02-26T12:50:05.991Z,40.40
2019-02-26T12:52:36.616Z,39.00
2019-02-26T12:55:10.412Z,38.00
2019-02-26T12:57:42.754Z,36.50
2019-02-26T13:00:16.584Z,36.30
2019-02-26T13:02:49.313Z,36.60
2019-02-26T13:05:23.057Z,37.70
2019-02-26T13:07:53.814Z,37.60
2019-02-26T13:10:24.383Z,37.20
2019-02-26T13:13:06.560Z,37.40
2019-02-26T13:15:39.203Z,37.60
2019-02-26T13:18:09.890Z,37.60
2019-02-26T13:21:02.922Z,37.60
2019-02-26T13:23:34.143Z,36.90
2019-02-26T13:26:07.567Z,36.10
2019-02-26T13:28:38.115Z,35.70
2019-02-26T13:31:13.342Z,35.50
2019-02-26T13:33:42.047Z,35.10
2019-02-26T13:36:12.957Z,33.90
2019-02-26T13:38:45.917Z,33.00
2019-02-26T13:41:38.336Z,34.10
2019-02-26T13:43:48.028Z,35.50
2019-02-26T13:46:18.553Z,35.20
2019-02-26T13:48:49.376Z,35.00
2019-02-26T13:51:20.236Z,34.70
2019-02-26T13:53:51.063Z,35.00
2019-02-26T13:56:21.794Z,34.70
2019-02-26T13:58:52.247Z,34.80
2019-02-26T14:01:22.830Z,35.60
2019-02-26T14:04:11.936Z,35.00
2019-02-26T14:06:53.509Z,33.30
2019-02-26T14:09:24.040Z,32.00
2019-02-26T14:11:54.469Z,33.00
2019-02-26T14:14:34.102Z,32.20
2019-02-26T14:17:23.343Z,33.00
2019-02-26T14:19:53.860Z,33.00
2019-02-26T14:22:24.542Z,33.20
2019-02-26T14:24:54.964Z,33.60
2019-02-26T14:27:25.431Z,33.70
2019-02-26T14:29:56.340Z,34.60
2019-02-26T14:32:44.359Z,35.20
2019-02-26T14:35:15.368Z,34.50
2019-02-26T14:37:59.967Z,34.70
2019-02-26T14:40:30.503Z,34.70
2019-02-26T14:43:01.037Z,35.50
2019-02-26T14:45:47.433Z,36.60
2019-02-26T14:48:17.858Z,37.40
2019-02-26T14:50:48.615Z,38.50
2019-02-26T14:53:19.220Z,38.80
2019-02-26T14:55:49.753Z,38.50
2019-02-26T14:58:20.688Z,38.70
2019-02-26T15:00:57.445Z,39.10
2019-02-26T15:03:23.293Z,39.20
2019-02-26T15:05:53.711Z,39.00
2019-02-26T15:08:24.139Z,38.10
2019-02-26T15:10:54.672Z,36.70
2019-02-26T15:13:25.585Z,35.70
2019-02-26T15:15:56.134Z,35.00
2019-02-26T15:18:26.641Z,35.30
2019-02-26T15:20:57.348Z,35.00
2019-02-26T15:23:27.876Z,34.00
2019-02-26T15:25:58.363Z,33.50
2019-02-26T15:28:28.799Z,34.00
2019-02-26T15:30:59.422Z,33.40
2019-02-26T15:33:29.944Z,32.50
2019-02-26T15:36:00.573Z,32.20
2019-02-26T15:38:31.623Z,31.70
2019-02-26T15:41:02.067Z,31.10
2019-02-26T15:43:32.575Z,31.20
2019-02-26T15:46:02.998Z,31.70
2019-02-26T15:48:33.718Z,31.60
2019-02-26T15:51:13.924Z,31.50
2019-02-26T15:53:37.815Z,31.50
2019-02-26T15:56:08.337Z,31.00
2019-02-26T15:58:38.829Z,31.00
2019-02-26T16:01:15.161Z,30.90
2019-02-26T16:03:45.523Z,30.20
2019-02-26T16:06:16.122Z,30.00
2019-02-26T16:08:46.577Z,29.50
2019-02-26T16:11:17.110Z,29.50
2019-02-26T16:13:47.943Z,30.00
2019-02-26T16:16:21.386Z,29.50
2019-02-26T16:18:53.001Z,28.70
2019-02-26T16:21:26.800Z,28.40
2019-02-26T16:23:57.481Z,27.90
2019-02-26T16:26:27.979Z,27.70
2019-02-26T16:29:00.790Z,27.50
2019-02-26T16:31:30.686Z,27.50
2019-02-26T16:34:01.597Z,27.50
2019-02-26T16:36:32.855Z,27.50
2019-02-26T16:39:03.381Z,27.10
2019-02-26T16:41:38.041Z,27.00
2019-02-26T16:44:06.875Z,26.70
2019-02-26T16:46:39.556Z,26.70
2019-02-26T16:49:09.588Z,26.30
2019-02-26T16:51:40.236Z,25.60
2019-02-26T16:54:17.610Z,25.40
2019-02-26T16:56:48.080Z,25.30
2019-02-26T16:59:25.837Z,25.00
2019-02-26T17:01:56.420Z,24.50
2019-02-26T17:04:27.542Z,24.50
2019-02-26T17:06:58.059Z,24.70
2019-02-26T17:09:28.672Z,24.40
2019-02-26T17:12:00.116Z,24.00
2019-02-26T17:14:31.575Z,22.90
2019-02-26T17:17:03.892Z,21.90
2019-02-26T17:19:34.775Z,21.00
2019-02-26T17:22:05.373Z,20.10
2019-02-26T17:24:35.842Z,19.40
2019-02-26T17:27:13.533Z,19.00
2019-02-26T17:29:43.973Z,18.60
2019-02-26T17:32:22.394Z,18.30
2019-02-26T17:34:53.783Z,18.00
2019-02-26T17:37:25.047Z,17.70
2019-02-26T17:39:55.507Z,17.50
2019-02-26T17:42:26.024Z,17.30
2019-02-26T17:44:56.463Z,17.10
2019-02-26T17:47:26.984Z,16.80
2019-02-26T17:49:57.417Z,16.70
2019-02-26T17:52:27.952Z,16.50
2019-02-26T17:54:58.369Z,16.30
2019-02-26T17:57:28.800Z,16.10
2019-02-26T17:59:59.321Z,16.00
2019-02-26T18:02:29.756Z,15.80
2019-02-26T18:05:00.766Z,15.70
2019-02-26T18:07:32.343Z,15.50
2019-02-26T18:10:04.421Z,15.40
2019-02-26T18:12:35.048Z,15.30
2019-02-26T18:15:05.903Z,15.20
2019-02-26T18:17:36.526Z,15.10
2019-02-26T18:20:18.302Z,14.90
2019-02-26T18:22:48.852Z,14.80
2019-02-26T18:25:20.013Z,14.60
2019-02-26T18:27:50.561Z,14.40
2019-02-26T18:30:22.428Z,14.30
2019-02-26T18:32:55.603Z,14.10
2019-02-26T18:35:25.176Z,13.90
2019-02-26T18:37:55.795Z,13.80
2019-02-26T18:40:28.359Z,13.60
2019-02-26T18:42:59.332Z,13.50
2019-02-26T18:45:29.961Z,13.40
2019-02-26T18:48:00.374Z,13.20
2019-02-26T18:50:30.910Z,13.10
2019-02-26T18:53:01.841Z,13.00
2019-02-26T18:55:32.762Z,12.90
2019-02-26T18:58:03.490Z,12.90
2019-02-26T19:00:33.946Z,12.80
2019-02-26T19:03:08.679Z,12.80
2019-02-26T19:05:36.816Z,12.90
2019-02-26T19:08:09.009Z,13.00
2019-02-26T19:10:39.440Z,13.20
2019-02-26T19:13:09.980Z,13.30
2019-02-26T19:15:40.460Z,13.20
2019-02-26T19:18:11.947Z,13.20
2019-02-26T19:20:44.269Z,13.10
2019-02-26T19:23:14.744Z,13.00
2019-02-26T19:25:45.179Z,12.80
2019-02-26T19:28:15.722Z,12.70
2019-02-26T19:30:46.279Z,12.50
2019-02-26T19:33:18.841Z,12.40
2019-02-26T19:35:48.989Z,12.30
2019-02-26T19:38:19.618Z,12.20
2019-02-26T19:40:50.251Z,12.00
2019-02-26T19:43:20.821Z,11.90
2019-02-26T19:45:51.282Z,11.90
2019-02-26T19:48:21.809Z,11.80
2019-02-26T19:50:52.319Z,11.70
2019-02-26T19:53:22.956Z,11.70
2019-02-26T19:55:53.432Z,11.60
2019-02-26T19:58:23.799Z,11.50
2019-02-26T20:00:54.347Z,11.50
2019-02-26T20:03:24.890Z,11.50
2019-02-26T20:05:55.853Z,11.50
2019-02-26T20:08:26.333Z,11.50
2019-02-26T20:10:57.822Z,11.60
2019-02-26T20:13:28.416Z,11.60
2019-02-26T20:15:58.843Z,11.70
2019-02-26T20:18:29.481Z,11.80
2019-02-26T20:20:59.901Z,11.80
2019-02-26T20:23:30.427Z,11.90
2019-02-26T20:26:01.100Z,11.90
2019-02-26T20:28:35.260Z,12.00
2019-02-26T20:31:04.046Z,12.00
2019-02-26T20:33:34.592Z,12.00
2019-02-26T20:36:05.319Z,11.90
2019-02-26T20:38:35.963Z,11.90
2019-02-26T20:41:07.009Z,11.80
2019-02-26T20:43:39.059Z,11.70
2019-02-26T20:46:09.911Z,11.60
2019-02-26T20:48:41.016Z,11.50
2019-02-26T20:51:11.865Z,11.30
2019-02-26T20:53:42.607Z,11.20
2019-02-26T20:56:13.258Z,11.20
2019-02-26T20:58:44.899Z,11.10
2019-02-26T21:01:16.111Z,11.00
2019-02-26T21:03:46.584Z,11.00
2019-02-26T21:06:18.062Z,10.90
2019-02-26T21:08:49.136Z,10.90
2019-02-26T21:11:22.457Z,10.90
2019-02-26T21:13:52.064Z,10.80
2019-02-26T21:16:22.504Z,10.80
2019-02-26T21:18:52.993Z,10.80
2019-02-26T21:21:23.459Z,10.80
2019-02-26T21:23:54.001Z,10.70
2019-02-26T21:26:24.608Z,10.60
2019-02-26T21:28:55.445Z,10.70
2019-02-26T21:31:26.031Z,10.60
2019-02-26T21:33:56.618Z,10.70
2019-02-26T21:36:27.984Z,10.60
2019-02-26T21:38:58.966Z,10.50
2019-02-26T21:41:29.471Z,10.50
2019-02-26T21:43:59.961Z,10.50
2019-02-26T21:46:30.496Z,10.40
2019-02-26T21:49:00.912Z,10.30
2019-02-26T21:51:33.764Z,10.10
2019-02-26T21:54:03.759Z,10.00
2019-02-26T21:56:34.243Z,9.80
2019-02-26T21:59:04.671Z,9.70
2019-02-26T22:01:35.092Z,9.60
2019-02-26T22:04:06.672Z,9.50
2019-02-26T22:06:37.074Z,9.50
2019-02-26T22:09:08.435Z,9.40
2019-02-26T22:11:39.260Z,9.40
2019-02-26T22:14:09.695Z,9.40
2019-02-26T22:16:40.113Z,9.50
2019-02-26T22:19:10.537Z,9.60
2019-02-26T22:21:51.794Z,9.60
2019-02-26T22:24:21.018Z,9.70
2019-02-26T22:26:51.545Z,9.80
2019-02-26T22:29:22.076Z,9.80
2019-02-26T22:31:52.651Z,9.70
2019-02-26T22:34:23.138Z,9.50
2019-02-26T22:36:54.517Z,9.30
2019-02-26T22:39:25.113Z,9.20
2019-02-26T22:41:55.758Z,9.00
2019-02-26T22:44:27.199Z,8.90
2019-02-26T22:46:59.119Z,8.80
2019-02-26T22:49:29.677Z,8.70
2019-02-26T22:52:01.452Z,8.60
2019-02-26T22:54:32.065Z,8.60
2019-02-26T22:57:02.769Z,8.50
2019-02-26T22:59:33.267Z,8.50
2019-02-26T23:02:08.524Z,8.50
2019-02-26T23:04:38.562Z,8.40
2019-02-26T23:07:09.286Z,8.50
2019-02-26T23:09:40.045Z,8.50
2019-02-26T23:12:10.692Z,8.70
2019-02-26T23:14:41.989Z,8.70
2019-02-26T23:17:13.096Z,8.80
2019-02-26T23:19:43.506Z,8.80
2019-02-26T23:22:14.080Z,8.80
2019-02-26T23:24:45.176Z,8.70
2019-02-26T23:27:15.773Z,8.60
2019-02-26T23:29:46.410Z,8.50
2019-02-26T23:32:17.428Z,8.30
2019-02-26T23:35:04.433Z,8.30
2019-02-26T23:37:35.330Z,8.20
2019-02-26T23:40:06.739Z,8.10
2019-02-26T23:42:39.101Z,8.00
2019-02-26T23:45:10.404Z,7.90
2019-02-26T23:47:41.048Z,7.80
2019-02-26T23:50:11.864Z,7.80
2019-02-26T23:52:42.371Z,7.70
2019-02-26T23:55:13.965Z,7.60
2019-02-26T23:57:44.484Z,7.60
